Elizabeth R — WDG5460 — position and weather

sailwx.info

Track history (hours):
 
Tides and Currents Weather Stations Pressure Air Temp Water Temp Dewpoint Dewpoint Depression Visibility Wind Speed Wind Dir Waves Ship Positions

Elizabeth R

Owner: Kirby Inland Marine LP, Houston, TX. More information available from US FCC via Universal Licensing System and Coast Guard Vessel Documentation Center.

Last reported at 2017-Dec-30 16:41 UTC. Time now 2018-Jan-22 02:38 UTC.
Position N 29°49' W 092°01'.
Warning: this ship's position is 22 days out of date.

Length 212 m; draft 2.7 m.

Type: . MMSI: 367546910.

Date/timePositionNaut miles runAvg speedWind from/ knotsBaromVisibWave heightAir tempDewpointWater temp
2017-Dec-30 16:41N 29°49' W 092°01'1 6.6
2017-Dec-30 16:30N 29°49' W 092°02'3 6.4
2017-Dec-30 16:00N 29°48' W 092°06'3 6.2
2017-Dec-30 15:30N 29°47' W 092°09'3 5.1
2017-Dec-30 15:00N 29°47' W 092°12'2 4.3
2017-Dec-30 14:30N 29°48' W 092°14'1 1.0
2017-Dec-30 14:00N 29°48' W 092°15'1 1.4
2017-Dec-30 13:30N 29°48' W 092°16'3 5.6
2017-Dec-30 13:01N 29°50' W 092°18'3 5.9
2017-Dec-30 12:30N 29°51' W 092°22'11 5.5
2017-Dec-30 10:32N 29°55' W 092°34'2 6.4
2017-Dec-30 10:12N 29°55' W 092°36'23 6.0
2017-Dec-30 06:17N 29°56' W 093°03'2 5.4
2017-Dec-30 05:58N 29°56' W 093°05'3 5.7
2017-Dec-30 05:30N 29°56' W 093°08'3 5.1
2017-Dec-30 05:00N 29°57' W 093°11'3 6.0
2017-Dec-30 04:30N 29°59' W 093°13'3 5.1
2017-Dec-30 04:00N 30°02' W 093°14'1 1.0
2017-Dec-30 03:30N 30°02' W 093°15'1 2.8
2017-Dec-30 03:00N 30°03' W 093°16'2 4.7
2017-Dec-30 02:30N 30°05' W 093°17'1 1.7
2017-Dec-30 02:00N 30°05' W 093°18'1 2.1
2017-Dec-30 01:30N 30°06' W 093°19'0 0.1
2017-Dec-30 01:01N 30°06' W 093°19'0 0.1
2017-Dec-30 00:30N 30°06' W 093°19'2 3.8
2017-Dec-30 00:01N 30°05' W 093°20'2 3.3
2017-Dec-29 23:30N 30°04' W 093°22'2 3.9
2017-Dec-29 23:00N 30°04' W 093°24'2 4.6
2017-Dec-29 22:30N 30°04' W 093°27'2 4.9
2017-Dec-29 22:00N 30°04' W 093°29'2 4.9
2017-Dec-29 21:30N 30°04' W 093°32'3 5.1
2017-Dec-29 20:58N 30°04' W 093°35'3 5.7
2017-Dec-29 20:30N 30°04' W 093°39'  
2017-Dec-21 13:11N 29°60' W 093°55'0 0.0
2017-Dec-21 12:57N 29°60' W 093°55'0 0.0
2017-Dec-21 12:30N 29°60' W 093°55'0 0.0
2017-Dec-21 12:00N 29°60' W 093°55'0 0.0
2017-Dec-21 11:30N 29°60' W 093°55'0 0.0
2017-Dec-21 11:00N 29°60' W 093°55'0 0.0
2017-Dec-21 10:25N 29°60' W 093°55'0 0.1
2017-Dec-21 09:53N 29°60' W 093°55'2 5.4
2017-Dec-21 09:29N 29°59' W 093°52'6 6.6
2017-Dec-21 08:39N 30°00' W 093°46'2 8.0
2017-Dec-21 08:23N 30°02' W 093°44'2 6.5
2017-Dec-21 08:00N 30°03' W 093°42'3 6.9
2017-Dec-21 07:30N 30°04' W 093°38'4 7.1
2017-Dec-21 07:00N 30°04' W 093°34'4 7.0
2017-Dec-21 06:29N 30°04' W 093°30'3 6.9
2017-Dec-21 06:00N 30°04' W 093°26'3 6.7
2017-Dec-21 05:30N 30°04' W 093°22'3 5.4
2017-Dec-21 05:00N 30°05' W 093°20'3 6.2
2017-Dec-21 04:30N 30°08' W 093°20'3 7.0
2017-Dec-21 04:00N 30°11' W 093°18'3 5.9
2017-Dec-21 03:30N 30°13' W 093°15'2 4.7
2017-Dec-21 03:00N 30°15' W 093°14'1 2.3
2017-Dec-21 02:30N 30°15' W 093°13'1 1.8
2017-Dec-21 02:00N 30°15' W 093°12'  
Track history (hours):
 
Tides and Currents Weather Stations Pressure Air Temp Water Temp Dewpoint Dewpoint Depression Visibility Wind Speed Wind Dir Waves Ship Positions

Elizabeth R

Owner: Kirby Inland Marine LP, Houston, TX. More information available from US FCC via Universal Licensing System and Coast Guard Vessel Documentation Center.

Last reported at 2017-Dec-30 16:41 UTC. Time now 2018-Jan-22 02:38 UTC.
Position N 29°49' W 092°01'.
Warning: this ship's position is 22 days out of date.

Length 212 m; draft 2.7 m.

Type: . MMSI: 367546910.

Date/timePositionNaut miles runAvg speedWind from/ knotsBaromVisibWave heightAir tempDewpointWater temp
2017-Dec-30 16:41N 29°49' W 092°01'1 6.6
2017-Dec-30 16:30N 29°49' W 092°02'3 6.4
2017-Dec-30 16:00N 29°48' W 092°06'3 6.2
2017-Dec-30 15:30N 29°47' W 092°09'3 5.1
2017-Dec-30 15:00N 29°47' W 092°12'2 4.3
2017-Dec-30 14:30N 29°48' W 092°14'1 1.0
2017-Dec-30 14:00N 29°48' W 092°15'1 1.4
2017-Dec-30 13:30N 29°48' W 092°16'3 5.6
2017-Dec-30 13:01N 29°50' W 092°18'3 5.9
2017-Dec-30 12:30N 29°51' W 092°22'11 5.5
2017-Dec-30 10:32N 29°55' W 092°34'2 6.4
2017-Dec-30 10:12N 29°55' W 092°36'23 6.0
2017-Dec-30 06:17N 29°56' W 093°03'2 5.4
2017-Dec-30 05:58N 29°56' W 093°05'3 5.7
2017-Dec-30 05:30N 29°56' W 093°08'3 5.1
2017-Dec-30 05:00N 29°57' W 093°11'3 6.0
2017-Dec-30 04:30N 29°59' W 093°13'3 5.1
2017-Dec-30 04:00N 30°02' W 093°14'1 1.0
2017-Dec-30 03:30N 30°02' W 093°15'1 2.8
2017-Dec-30 03:00N 30°03' W 093°16'2 4.7
2017-Dec-30 02:30N 30°05' W 093°17'1 1.7
2017-Dec-30 02:00N 30°05' W 093°18'1 2.1
2017-Dec-30 01:30N 30°06' W 093°19'0 0.1
2017-Dec-30 01:01N 30°06' W 093°19'0 0.1
2017-Dec-30 00:30N 30°06' W 093°19'2 3.8
2017-Dec-30 00:01N 30°05' W 093°20'2 3.3
2017-Dec-29 23:30N 30°04' W 093°22'2 3.9
2017-Dec-29 23:00N 30°04' W 093°24'2 4.6
2017-Dec-29 22:30N 30°04' W 093°27'2 4.9
2017-Dec-29 22:00N 30°04' W 093°29'2 4.9
2017-Dec-29 21:30N 30°04' W 093°32'3 5.1
2017-Dec-29 20:58N 30°04' W 093°35'3 5.7
2017-Dec-29 20:30N 30°04' W 093°39'  
2017-Dec-21 13:11N 29°60' W 093°55'0 0.0
2017-Dec-21 12:57N 29°60' W 093°55'0 0.0
2017-Dec-21 12:30N 29°60' W 093°55'0 0.0
2017-Dec-21 12:00N 29°60' W 093°55'0 0.0
2017-Dec-21 11:30N 29°60' W 093°55'0 0.0
2017-Dec-21 11:00N 29°60' W 093°55'0 0.0
2017-Dec-21 10:25N 29°60' W 093°55'0 0.1
2017-Dec-21 09:53N 29°60' W 093°55'2 5.4
2017-Dec-21 09:29N 29°59' W 093°52'6 6.6
2017-Dec-21 08:39N 30°00' W 093°46'2 8.0
2017-Dec-21 08:23N 30°02' W 093°44'2 6.5
2017-Dec-21 08:00N 30°03' W 093°42'3 6.9
2017-Dec-21 07:30N 30°04' W 093°38'4 7.1
2017-Dec-21 07:00N 30°04' W 093°34'4 7.0
2017-Dec-21 06:29N 30°04' W 093°30'3 6.9
2017-Dec-21 06:00N 30°04' W 093°26'3 6.7
2017-Dec-21 05:30N 30°04' W 093°22'3 5.4
2017-Dec-21 05:00N 30°05' W 093°20'3 6.2
2017-Dec-21 04:30N 30°08' W 093°20'3 7.0
2017-Dec-21 04:00N 30°11' W 093°18'3 5.9
2017-Dec-21 03:30N 30°13' W 093°15'2 4.7
2017-Dec-21 03:00N 30°15' W 093°14'1 2.3
2017-Dec-21 02:30N 30°15' W 093°13'1 1.8
2017-Dec-21 02:00N 30°15' W 093°12'  

Dump ship's entire track history